METAR Data

Data at: 2330 UTC 26 Feb 2020

METAR for:KBOS (Boston/Logan Intl, MA, US)
Text:KBOS 262254Z 05010KT 1/4SM R04R/P6000FT FG OVC002 07/04 A2997 RMK AO2 SFC VIS 1/2 SLP149 T00670044
Temperature: 6.7°C ( 44°F)
Dewpoint: 4.4°C ( 40°F) [RH = 85%]
Pressure (altimeter):29.97 inches Hg (1015.0 mb) [Sea level pressure: 1014.9 mb]
Winds:from the NE (50 degrees) at 12 MPH (10 knots; 5.1 m/s)
Visibility: 0.25 sm ( 0.40 km)
Ceiling:200 feet AGL
Clouds: overcast cloud deck at 200 feet AGL
Weather:FG (fog)